sensor_id;sensor_type;location;lat;lon;timestamp;temperature;humidity
11399;DHT22;5755;48.116;11.608;2023-05-20T01:15:12;12.70;97.40
11399;DHT22;5755;48.116;11.608;2023-05-20T01:28:21;12.60;97.70
11399;DHT22;5755;48.116;11.608;2023-05-20T01:31:31;12.60;97.70
11399;DHT22;5755;48.116;11.608;2023-05-20T01:37:20;12.60;98.10
11399;DHT22;5755;48.116;11.608;2023-05-20T02:16:46;12.40;99.00
11399;DHT22;5755;48.116;11.608;2023-05-20T02:19:50;12.50;99.00
11399;DHT22;5755;48.116;11.608;2023-05-20T02:22:31;12.50;99.00
11399;DHT22;5755;48.116;11.608;2023-05-20T02:48:17;12.30;99.90
11399;DHT22;5755;48.116;11.608;2023-05-20T02:51:06;12.30;99.90
11399;DHT22;5755;48.116;11.608;2023-05-20T02:53:47;12.20;99.90
11399;DHT22;5755;48.116;11.608;2023-05-20T02:56:28;12.20;99.90
11399;DHT22;5755;48.116;11.608;2023-05-20T02:59:10;12.20;99.90
11399;DHT22;5755;48.116;11.608;2023-05-20T03:11:27;12.20;99.90
11399;DHT22;5755;48.116;11.608;2023-05-20T03:17:23;12.20;99.90
11399;DHT22;5755;48.116;11.608;2023-05-20T03:20:05;12.10;99.90
11399;DHT22;5755;48.116;11.608;2023-05-20T03:22:47;12.10;99.90
11399;DHT22;5755;48.116;11.608;2023-05-20T03:32:07;12.10;99.90
11399;DHT22;5755;48.116;11.608;2023-05-20T03:34:54;12.10;99.90
11399;DHT22;5755;48.116;11.608;2023-05-20T03:37:37;12.10;99.90
11399;DHT22;5755;48.116;11.608;2023-05-20T03:40:24;12.10;99.90
11399;DHT22;5755;48.116;11.608;2023-05-20T03:43:05;12.10;99.90
11399;DHT22;5755;48.116;11.608;2023-05-20T03:45:47;12.10;99.90
11399;DHT22;5755;48.116;11.608;2023-05-20T03:48:30;12.00;99.90
11399;DHT22;5755;48.116;11.608;2023-05-20T03:51:12;12.00;99.90
11399;DHT22;5755;48.116;11.608;2023-05-20T03:53:54;12.10;99.90
11399;DHT22;5755;48.116;11.608;2023-05-20T03:56:37;12.10;99.90
11399;DHT22;5755;48.116;11.608;2023-05-20T03:59:19;12.10;99.90
11399;DHT22;5755;48.116;11.608;2023-05-20T04:02:00;12.10;99.90
11399;DHT22;5755;48.116;11.608;2023-05-20T04:17:42;12.20;99.90
11399;DHT22;5755;48.116;11.608;2023-05-20T04:20:29;12.20;99.90
11399;DHT22;5755;48.116;11.608;2023-05-20T04:23:10;12.10;99.90
11399;DHT22;5755;48.116;11.608;2023-05-20T06:54:20;13.90;98.60
11399;DHT22;5755;48.116;11.608;2023-05-20T06:57:05;14.00;98.00
11399;DHT22;5755;48.116;11.608;2023-05-20T06:59:46;13.90;98.30
11399;DHT22;5755;48.116;11.608;2023-05-20T07:02:16;14.10;98.10
11399;DHT22;5755;48.116;11.608;2023-05-20T07:04:57;14.30;97.20
11399;DHT22;5755;48.116;11.608;2023-05-20T07:10:42;14.70;95.80
11399;DHT22;5755;48.116;11.608;2023-05-20T07:13:27;14.70;95.50
11399;DHT22;5755;48.116;11.608;2023-05-20T07:16:08;14.60;95.60
11399;DHT22;5755;48.116;11.608;2023-05-20T07:18:48;14.50;96.10
11399;DHT22;5755;48.116;11.608;2023-05-20T07:21:15;14.30;96.70
11399;DHT22;5755;48.116;11.608;2023-05-20T07:23:43;14.20;96.70
11399;DHT22;5755;48.116;11.608;2023-05-20T07:26:13;14.20;96.80
11399;DHT22;5755;48.116;11.608;2023-05-20T07:28:57;14.20;96.10
11399;DHT22;5755;48.116;11.608;2023-05-20T07:31:24;14.30;96.20
11399;DHT22;5755;48.116;11.608;2023-05-20T07:33:51;14.50;95.70
11399;DHT22;5755;48.116;11.608;2023-05-20T07:36:18;14.80;94.90
11399;DHT22;5755;48.116;11.608;2023-05-20T07:38:59;15.20;93.10
11399;DHT22;5755;48.116;11.608;2023-05-20T07:41:42;15.60;91.60
11399;DHT22;5755;48.116;11.608;2023-05-20T07:44:22;16.10;90.00
11399;DHT22;5755;48.116;11.608;2023-05-20T07:46:51;16.60;85.10
11399;DHT22;5755;48.116;11.608;2023-05-20T07:49:19;16.80;80.80
11399;DHT22;5755;48.116;11.608;2023-05-20T07:51:46;16.80;80.40
11399;DHT22;5755;48.116;11.608;2023-05-20T07:54:27;16.70;80.70
11399;DHT22;5755;48.116;11.608;2023-05-20T07:56:56;16.40;84.80
11399;DHT22;5755;48.116;11.608;2023-05-20T07:59:38;16.40;87.00
11399;DHT22;5755;48.116;11.608;2023-05-20T08:02:05;16.70;83.50
11399;DHT22;5755;48.116;11.608;2023-05-20T08:04:52;17.00;82.20
11399;DHT22;5755;48.116;11.608;2023-05-20T08:07:21;17.30;78.30
11399;DHT22;5755;48.116;11.608;2023-05-20T08:10:01;17.60;76.00
11399;DHT22;5755;48.116;11.608;2023-05-20T08:12:30;17.90;71.50
11399;DHT22;5755;48.116;11.608;2023-05-20T08:15:11;18.00;66.30
11399;DHT22;5755;48.116;11.608;2023-05-20T08:17:52;17.80;70.40
11399;DHT22;5755;48.116;11.608;2023-05-20T08:20:24;17.60;74.20
11399;DHT22;5755;48.116;11.608;2023-05-20T08:22:51;17.40;75.40
11399;DHT22;5755;48.116;11.608;2023-05-20T08:25:18;17.60;76.80
11399;DHT22;5755;48.116;11.608;2023-05-20T08:27:47;17.60;75.40
11399;DHT22;5755;48.116;11.608;2023-05-20T08:30:52;17.60;75.00
11399;DHT22;5755;48.116;11.608;2023-05-20T08:33:22;17.70;74.60
11399;DHT22;5755;48.116;11.608;2023-05-20T08:36:20;17.90;70.90
11399;DHT22;5755;48.116;11.608;2023-05-20T08:39:03;18.40;70.10
11399;DHT22;5755;48.116;11.608;2023-05-20T08:41:46;18.80;62.60
11399;DHT22;5755;48.116;11.608;2023-05-20T08:44:28;19.00;59.40
11399;DHT22;5755;48.116;11.608;2023-05-20T08:47:09;19.20;51.70
11399;DHT22;5755;48.116;11.608;2023-05-20T08:49:37;19.10;55.10
11399;DHT22;5755;48.116;11.608;2023-05-20T08:52:05;19.10;55.10
11399;DHT22;5755;48.116;11.608;2023-05-20T08:54:47;19.20;52.80
11399;DHT22;5755;48.116;11.608;2023-05-20T08:57:16;19.30;55.30
11399;DHT22;5755;48.116;11.608;2023-05-20T08:59:46;19.50;49.70
11399;DHT22;5755;48.116;11.608;2023-05-20T09:02:13;19.90;50.10
11399;DHT22;5755;48.116;11.608;2023-05-20T09:10:05;19.80;49.90
11399;DHT22;5755;48.116;11.608;2023-05-20T09:12:59;20.10;47.40
11399;DHT22;5755;48.116;11.608;2023-05-20T09:24:25;21.20;34.60
11399;DHT22;5755;48.116;11.608;2023-05-20T09:27:06;21.60;33.50
11399;DHT22;5755;48.116;11.608;2023-05-20T09:29:53;22.10;33.70
11399;DHT22;5755;48.116;11.608;2023-05-20T09:32:34;23.40;27.20
11399;DHT22;5755;48.116;11.608;2023-05-20T09:35:02;24.30;23.80
11399;DHT22;5755;48.116;11.608;2023-05-20T09:37:46;24.30;23.00
11399;DHT22;5755;48.116;11.608;2023-05-20T09:54:12;22.50;25.60
11399;DHT22;5755;48.116;11.608;2023-05-20T09:57:18;22.40;26.30
11399;DHT22;5755;48.116;11.608;2023-05-20T09:59:46;22.30;28.80
11399;DHT22;5755;48.116;11.608;2023-05-20T10:15:54;21.40;30.30
11399;DHT22;5755;48.116;11.608;2023-05-20T10:19:05;21.60;31.70
11399;DHT22;5755;48.116;11.608;2023-05-20T10:21:56;22.60;27.70
11399;DHT22;5755;48.116;11.608;2023-05-20T10:24:39;23.10;28.60
11399;DHT22;5755;48.116;11.608;2023-05-20T10:33:53;26.40;14.80
11399;DHT22;5755;48.116;11.608;2023-05-20T10:36:38;26.90;15.10
11399;DHT22;5755;48.116;11.608;2023-05-20T10:39:44;26.90;15.10
11399;DHT22;5755;48.116;11.608;2023-05-20T10:42:28;27.00;15.10
11399;DHT22;5755;48.116;11.608;2023-05-20T10:48:27;26.90;15.10
11399;DHT22;5755;48.116;11.608;2023-05-20T10:51:17;27.30;14.10
11399;DHT22;5755;48.116;11.608;2023-05-20T10:54:43;27.10;14.50
11399;DHT22;5755;48.116;11.608;2023-05-20T11:02:25;27.10;13.60
11399;DHT22;5755;48.116;11.608;2023-05-20T11:05:12;26.60;15.00
11399;DHT22;5755;48.116;11.608;2023-05-20T11:08:00;25.90;15.50
11399;DHT22;5755;48.116;11.608;2023-05-20T11:10:45;25.30;17.90
11399;DHT22;5755;48.116;11.608;2023-05-20T11:13:41;24.90;18.00
11399;DHT22;5755;48.116;11.608;2023-05-20T11:16:08;24.40;18.60
11399;DHT22;5755;48.116;11.608;2023-05-20T11:18:50;23.90;19.60
11399;DHT22;5755;48.116;11.608;2023-05-20T11:24:36;23.30;20.20
11399;DHT22;5755;48.116;11.608;2023-05-20T11:39:13;24.60;20.40
11399;DHT22;5755;48.116;11.608;2023-05-20T11:41:54;24.60;19.20
11399;DHT22;5755;48.116;11.608;2023-05-20T11:44:21;24.70;19.00
11399;DHT22;5755;48.116;11.608;2023-05-20T11:57:19;24.20;18.80
11399;DHT22;5755;48.116;11.608;2023-05-20T11:59:46;23.80;19.10
11399;DHT22;5755;48.116;11.608;2023-05-20T12:02:28;23.80;20.50
11399;DHT22;5755;48.116;11.608;2023-05-20T13:11:28;24.40;18.30
11399;DHT22;5755;48.116;11.608;2023-05-20T13:18:05;24.00;20.70
11399;DHT22;5755;48.116;11.608;2023-05-20T13:20:48;24.10;20.40
11399;DHT22;5755;48.116;11.608;2023-05-20T13:23:30;24.40;22.70
11399;DHT22;5755;48.116;11.608;2023-05-20T13:26:10;24.40;20.00
11399;DHT22;5755;48.116;11.608;2023-05-20T13:28:52;24.30;20.60
11399;DHT22;5755;48.116;11.608;2023-05-20T13:31:36;24.20;20.30
11399;DHT22;5755;48.116;11.608;2023-05-20T13:34:17;24.30;20.00
11399;DHT22;5755;48.116;11.608;2023-05-20T13:36:45;24.20;20.60
11399;DHT22;5755;48.116;11.608;2023-05-20T13:39:12;24.20;20.40
11399;DHT22;5755;48.116;11.608;2023-05-20T13:41:39;24.20;20.00
11399;DHT22;5755;48.116;11.608;2023-05-20T13:47:26;24.10;20.90
11399;DHT22;5755;48.116;11.608;2023-05-20T13:50:11;24.00;21.50
11399;DHT22;5755;48.116;11.608;2023-05-20T13:52:51;24.00;20.60
11399;DHT22;5755;48.116;11.608;2023-05-20T13:55:19;24.00;22.20
11399;DHT22;5755;48.116;11.608;2023-05-20T13:57:59;23.90;22.30
11399;DHT22;5755;48.116;11.608;2023-05-20T14:14:24;23.70;21.10
11399;DHT22;5755;48.116;11.608;2023-05-20T14:17:29;23.60;21.70
11399;DHT22;5755;48.116;11.608;2023-05-20T14:20:14;23.50;22.50
11399;DHT22;5755;48.116;11.608;2023-05-20T14:22:55;23.40;21.60
11399;DHT22;5755;48.116;11.608;2023-05-20T14:25:46;23.40;21.00
11399;DHT22;5755;48.116;11.608;2023-05-20T14:28:13;23.30;20.60
11399;DHT22;5755;48.116;11.608;2023-05-20T14:30:42;23.20;20.70
11399;DHT22;5755;48.116;11.608;2023-05-20T14:33:22;23.30;20.40
11399;DHT22;5755;48.116;11.608;2023-05-20T14:36:17;23.20;20.30
11399;DHT22;5755;48.116;11.608;2023-05-20T14:39:09;23.20;21.00
11399;DHT22;5755;48.116;11.608;2023-05-20T14:41:36;23.20;21.70
11399;DHT22;5755;48.116;11.608;2023-05-20T14:44:03;23.10;22.70
11399;DHT22;5755;48.116;11.608;2023-05-20T14:46:33;23.00;22.70
11399;DHT22;5755;48.116;11.608;2023-05-20T14:49:00;22.80;23.30
11399;DHT22;5755;48.116;11.608;2023-05-20T15:09:00;23.00;22.40
11399;DHT22;5755;48.116;11.608;2023-05-20T16:27:20;21.90;27.50
11399;DHT22;5755;48.116;11.608;2023-05-20T16:30:00;21.90;27.60
11399;DHT22;5755;48.116;11.608;2023-05-20T16:32:27;21.80;27.60
11399;DHT22;5755;48.116;11.608;2023-05-20T16:34:55;21.80;28.20
11399;DHT22;5755;48.116;11.608;2023-05-20T16:37:22;21.70;28.50
11399;DHT22;5755;48.116;11.608;2023-05-20T16:39:49;21.70;28.10
11399;DHT22;5755;48.116;11.608;2023-05-20T16:42:18;21.70;29.30
11399;DHT22;5755;48.116;11.608;2023-05-20T16:44:47;21.70;29.30
11399;DHT22;5755;48.116;11.608;2023-05-20T16:47:14;21.60;28.80
11399;DHT22;5755;48.116;11.608;2023-05-20T16:49:55;21.50;29.20
11399;DHT22;5755;48.116;11.608;2023-05-20T16:52:22;21.60;29.20
11399;DHT22;5755;48.116;11.608;2023-05-20T16:54:49;21.60;28.70
11399;DHT22;5755;48.116;11.608;2023-05-20T16:57:18;21.60;29.00
11399;DHT22;5755;48.116;11.608;2023-05-20T16:59:45;21.50;29.70
11399;DHT22;5755;48.116;11.608;2023-05-20T17:02:12;21.40;32.20
11399;DHT22;5755;48.116;11.608;2023-05-20T17:04:52;21.30;30.80
11399;DHT22;5755;48.116;11.608;2023-05-20T17:07:19;21.30;31.70
11399;DHT22;5755;48.116;11.608;2023-05-20T17:09:46;21.30;31.90
11399;DHT22;5755;48.116;11.608;2023-05-20T17:12:37;21.30;32.20
11399;DHT22;5755;48.116;11.608;2023-05-20T17:34:28;20.90;32.80
11399;DHT22;5755;48.116;11.608;2023-05-20T17:37:09;20.90;33.50
11399;DHT22;5755;48.116;11.608;2023-05-20T18:03:31;20.40;37.20
11399;DHT22;5755;48.116;11.608;2023-05-20T18:06:11;20.30;38.50
11399;DHT22;5755;48.116;11.608;2023-05-20T18:08:38;20.20;39.50
11399;DHT22;5755;48.116;11.608;2023-05-20T18:11:06;20.10;40.60
11399;DHT22;5755;48.116;11.608;2023-05-20T18:13:34;20.00;42.60
11399;DHT22;5755;48.116;11.608;2023-05-20T18:16:01;19.90;43.70
11399;DHT22;5755;48.116;11.608;2023-05-20T18:18:29;19.90;43.80
11399;DHT22;5755;48.116;11.608;2023-05-20T18:21:10;19.90;44.50
11399;DHT22;5755;48.116;11.608;2023-05-20T18:23:38;19.70;46.10
11399;DHT22;5755;48.116;11.608;2023-05-20T18:29:22;19.70;47.50
11399;DHT22;5755;48.116;11.608;2023-05-20T18:32:03;19.60;49.60
11399;DHT22;5755;48.116;11.608;2023-05-20T18:34:32;19.50;49.90
11399;DHT22;5755;48.116;11.608;2023-05-20T18:37:13;19.40;52.40
11399;DHT22;5755;48.116;11.608;2023-05-20T18:39:40;19.50;50.80
11399;DHT22;5755;48.116;11.608;2023-05-20T18:42:07;19.40;52.80
11399;DHT22;5755;48.116;11.608;2023-05-20T18:44:36;19.30;53.20
11399;DHT22;5755;48.116;11.608;2023-05-20T18:47:04;19.20;54.70
11399;DHT22;5755;48.116;11.608;2023-05-20T18:49:33;19.20;55.20
11399;DHT22;5755;48.116;11.608;2023-05-20T18:52:17;19.10;55.10
11399;DHT22;5755;48.116;11.608;2023-05-20T18:54:44;19.10;55.10
11399;DHT22;5755;48.116;11.608;2023-05-20T18:57:25;19.10;55.10
11399;DHT22;5755;48.116;11.608;2023-05-20T18:59:51;19.00;56.40
11399;DHT22;5755;48.116;11.608;2023-05-20T19:02:18;19.00;58.50
11399;DHT22;5755;48.116;11.608;2023-05-20T19:04:47;18.90;59.00
11399;DHT22;5755;48.116;11.608;2023-05-20T19:07:14;18.90;59.00
11399;DHT22;5755;48.116;11.608;2023-05-20T19:09:55;18.80;60.30
11399;DHT22;5755;48.116;11.608;2023-05-20T19:12:22;18.70;62.60
11399;DHT22;5755;48.116;11.608;2023-05-20T19:15:06;18.70;64.60
11399;DHT22;5755;48.116;11.608;2023-05-20T19:17:33;18.60;64.60
11399;DHT22;5755;48.116;11.608;2023-05-20T19:20:02;18.60;66.30
11399;DHT22;5755;48.116;11.608;2023-05-20T19:22:49;18.60;66.40
11399;DHT22;5755;48.116;11.608;2023-05-20T19:25:16;18.50;68.30
11399;DHT22;5755;48.116;11.608;2023-05-20T19:27:43;18.40;69.50
11399;DHT22;5755;48.116;11.608;2023-05-20T19:30:11;18.40;68.40
11399;DHT22;5755;48.116;11.608;2023-05-20T19:32:38;18.40;68.70
11399;DHT22;5755;48.116;11.608;2023-05-20T19:35:08;18.40;69.30
11399;DHT22;5755;48.116;11.608;2023-05-20T19:37:50;18.30;71.90
11399;DHT22;5755;48.116;11.608;2023-05-20T19:40:17;18.30;70.20
11399;DHT22;5755;48.116;11.608;2023-05-20T19:42:58;18.30;69.80
11399;DHT22;5755;48.116;11.608;2023-05-20T19:45:28;18.30;70.40
11399;DHT22;5755;48.116;11.608;2023-05-20T19:47:55;18.30;69.90
11399;DHT22;5755;48.116;11.608;2023-05-20T19:50:37;18.20;71.20
11399;DHT22;5755;48.116;11.608;2023-05-20T19:53:07;18.10;72.50
11399;DHT22;5755;48.116;11.608;2023-05-20T19:55:35;18.00;73.60
11399;DHT22;5755;48.116;11.608;2023-05-20T19:58:03;18.00;74.40
11399;DHT22;5755;48.116;11.608;2023-05-20T20:00:50;18.00;73.20
11399;DHT22;5755;48.116;11.608;2023-05-20T20:03:17;18.00;73.20
11399;DHT22;5755;48.116;11.608;2023-05-20T20:05:46;17.90;73.80
11399;DHT22;5755;48.116;11.608;2023-05-20T20:08:13;17.90;74.20
11399;DHT22;5755;48.116;11.608;2023-05-20T20:10:40;17.80;75.40
11399;DHT22;5755;48.116;11.608;2023-05-20T20:13:07;17.80;75.40
11399;DHT22;5755;48.116;11.608;2023-05-20T20:15:34;17.60;76.30
11399;DHT22;5755;48.116;11.608;2023-05-20T20:18:02;17.60;76.80
11399;DHT22;5755;48.116;11.608;2023-05-20T20:20:43;17.60;76.50
11399;DHT22;5755;48.116;11.608;2023-05-20T20:23:14;17.60;78.00
11399;DHT22;5755;48.116;11.608;2023-05-20T20:25:41;17.60;77.30
11399;DHT22;5755;48.116;11.608;2023-05-20T20:28:09;17.50;78.10
11399;DHT22;5755;48.116;11.608;2023-05-20T20:30:49;17.40;79.00
11399;DHT22;5755;48.116;11.608;2023-05-20T20:33:17;17.40;79.00
11399;DHT22;5755;48.116;11.608;2023-05-20T20:35:58;17.30;78.90
11399;DHT22;5755;48.116;11.608;2023-05-20T20:38:26;17.30;78.90
11399;DHT22;5755;48.116;11.608;2023-05-20T20:40:55;17.40;79.00
11399;DHT22;5755;48.116;11.608;2023-05-20T20:43:23;17.30;78.90
11399;DHT22;5755;48.116;11.608;2023-05-20T20:45:53;17.30;78.90
11399;DHT22;5755;48.116;11.608;2023-05-20T20:48:21;17.20;78.80
11399;DHT22;5755;48.116;11.608;2023-05-20T20:51:01;17.10;78.80
11399;DHT22;5755;48.116;11.608;2023-05-20T20:53:30;17.00;78.70
11399;DHT22;5755;48.116;11.608;2023-05-20T20:55:57;16.90;79.40
11399;DHT22;5755;48.116;11.608;2023-05-20T20:58:24;16.90;81.50
11399;DHT22;5755;48.116;11.608;2023-05-20T21:00:51;16.80;82.60
11399;DHT22;5755;48.116;11.608;2023-05-20T21:03:18;16.80;82.60
11399;DHT22;5755;48.116;11.608;2023-05-20T21:05:48;16.70;82.90
11399;DHT22;5755;48.116;11.608;2023-05-20T21:08:16;16.80;81.90
11399;DHT22;5755;48.116;11.608;2023-05-20T21:10:47;16.70;81.90
11399;DHT22;5755;48.116;11.608;2023-05-20T21:13:14;16.60;82.60
11399;DHT22;5755;48.116;11.608;2023-05-20T21:15:42;16.60;83.50
11399;DHT22;5755;48.116;11.608;2023-05-20T21:18:29;16.60;83.50
11399;DHT22;5755;48.116;11.608;2023-05-20T21:20:55;16.60;82.70
11399;DHT22;5755;48.116;11.608;2023-05-20T21:23:23;16.70;82.10
11399;DHT22;5755;48.116;11.608;2023-05-20T21:25:51;16.70;81.80
11399;DHT22;5755;48.116;11.608;2023-05-20T21:28:32;16.70;82.10
11399;DHT22;5755;48.116;11.608;2023-05-20T21:30:59;16.60;82.10
11399;DHT22;5755;48.116;11.608;2023-05-20T21:33:26;16.70;81.40
11399;DHT22;5755;48.116;11.608;2023-05-20T21:35:53;16.70;81.60
11399;DHT22;5755;48.116;11.608;2023-05-20T21:38:20;16.80;81.00
11399;DHT22;5755;48.116;11.608;2023-05-20T21:40:59;16.70;81.70
11399;DHT22;5755;48.116;11.608;2023-05-20T21:43:27;16.70;82.40
11399;DHT22;5755;48.116;11.608;2023-05-20T21:45:55;16.60;82.60
11399;DHT22;5755;48.116;11.608;2023-05-20T21:48:22;16.60;83.00
11399;DHT22;5755;48.116;11.608;2023-05-20T21:50:49;16.60;82.60
11399;DHT22;5755;48.116;11.608;2023-05-20T21:53:15;16.50;83.10
11399;DHT22;5755;48.116;11.608;2023-05-20T21:55:44;16.50;83.70
11399;DHT22;5755;48.116;11.608;2023-05-20T21:58:13;16.40;84.00
11399;DHT22;5755;48.116;11.608;2023-05-20T22:00:54;16.30;84.40
11399;DHT22;5755;48.116;11.608;2023-05-20T22:03:21;16.30;84.00
11399;DHT22;5755;48.116;11.608;2023-05-20T22:05:48;16.20;84.40
11399;DHT22;5755;48.116;11.608;2023-05-20T22:08:15;16.20;85.30
11399;DHT22;5755;48.116;11.608;2023-05-20T22:11:02;16.10;85.70
11399;DHT22;5755;48.116;11.608;2023-05-20T22:13:34;16.10;85.60
11399;DHT22;5755;48.116;11.608;2023-05-20T22:16:06;16.10;85.20
11399;DHT22;5755;48.116;11.608;2023-05-20T22:18:34;16.10;86.00
11399;DHT22;5755;48.116;11.608;2023-05-20T22:21:00;16.10;85.40
11399;DHT22;5755;48.116;11.608;2023-05-20T22:23:28;16.00;85.10
11399;DHT22;5755;48.116;11.608;2023-05-20T22:25:56;16.10;85.60
11399;DHT22;5755;48.116;11.608;2023-05-20T22:28:23;16.00;86.30
11399;DHT22;5755;48.116;11.608;2023-05-20T22:30:52;16.00;86.00
11399;DHT22;5755;48.116;11.608;2023-05-20T22:33:33;16.00;86.40
11399;DHT22;5755;48.116;11.608;2023-05-20T22:36:01;15.90;86.60
11399;DHT22;5755;48.116;11.608;2023-05-20T22:38:28;15.90;85.90
11399;DHT22;5755;48.116;11.608;2023-05-20T22:40:55;15.90;85.00
11399;DHT22;5755;48.116;11.608;2023-05-20T22:43:22;15.90;86.00
11399;DHT22;5755;48.116;11.608;2023-05-20T22:46:04;15.90;85.20
11399;DHT22;5755;48.116;11.608;2023-05-20T22:48:32;15.90;84.40
11399;DHT22;5755;48.116;11.608;2023-05-20T22:50:58;16.00;83.80
11399;DHT22;5755;48.116;11.608;2023-05-20T22:53:29;16.00;83.20
11399;DHT22;5755;48.116;11.608;2023-05-20T22:55:56;15.90;82.80
11399;DHT22;5755;48.116;11.608;2023-05-20T22:58:24;15.90;83.10
11399;DHT22;5755;48.116;11.608;2023-05-20T23:01:13;15.90;82.70
11399;DHT22;5755;48.116;11.608;2023-05-20T23:03:41;15.90;81.30
11399;DHT22;5755;48.116;11.608;2023-05-20T23:06:08;15.80;81.40
11399;DHT22;5755;48.116;11.608;2023-05-20T23:08:35;15.80;81.00
11399;DHT22;5755;48.116;11.608;2023-05-20T23:11:02;15.80;81.20
11399;DHT22;5755;48.116;11.608;2023-05-20T23:13:29;15.80;80.50
11399;DHT22;5755;48.116;11.608;2023-05-20T23:15:56;15.80;80.80
11399;DHT22;5755;48.116;11.608;2023-05-20T23:18:25;15.70;80.50
11399;DHT22;5755;48.116;11.608;2023-05-20T23:20:56;15.70;80.40
11399;DHT22;5755;48.116;11.608;2023-05-20T23:23:23;15.70;79.80
11399;DHT22;5755;48.116;11.608;2023-05-20T23:25:51;15.70;80.10
11399;DHT22;5755;48.116;11.608;2023-05-20T23:28:18;15.60;80.30
11399;DHT22;5755;48.116;11.608;2023-05-20T23:30:45;15.60;80.80
11399;DHT22;5755;48.116;11.608;2023-05-20T23:33:12;15.50;81.50
11399;DHT22;5755;48.116;11.608;2023-05-20T23:35:43;15.50;81.30
11399;DHT22;5755;48.116;11.608;2023-05-20T23:38:10;15.50;81.30
11399;DHT22;5755;48.116;11.608;2023-05-20T23:40:37;15.40;81.40
11399;DHT22;5755;48.116;11.608;2023-05-20T23:43:04;15.40;80.60
11399;DHT22;5755;48.116;11.608;2023-05-20T23:45:31;15.30;80.80
11399;DHT22;5755;48.116;11.608;2023-05-20T23:47:58;15.30;80.90
11399;DHT22;5755;48.116;11.608;2023-05-20T23:50:25;15.30;80.90
11399;DHT22;5755;48.116;11.608;2023-05-20T23:52:55;15.30;80.70
11399;DHT22;5755;48.116;11.608;2023-05-20T23:55:22;15.20;80.80
11399;DHT22;5755;48.116;11.608;2023-05-20T23:57:50;15.10;81.00
